Saint-Vith, Belgium
Current Conditions -  °F | °C
As of 10:42 PM on Friday 31 Oct 2014 (Local Time) from EBLB Reporting Station
Clear Clear  
Wind Chill: 48°   Ceiling: Unl
Heat Index: 48°   Visibility: 2.2mi
Dew Point: 46°   Wind: 3mph
Humidity: 93%   Direction: 260°W
Pressure: 30.24"   Gusts: NA
Location:  50.28°N, 6.13°E
Report Text: EBLB 312142Z AUTO 26003KT 3600 NCD 09/08 Q1024 YLO
Loading
Personal Weather Stations






























Interactive Weather Map
Tropical Storm Tracking
New forecast layout! Learn more

10-Day Weather Forecast

Advertisements
Track Severe Weather on mobile